createdAt,value
2019-06-01T00:01:54.176Z,84.80
2019-06-01T00:04:27.172Z,84.80
2019-06-01T00:06:58.851Z,85.00
2019-06-01T00:09:30.323Z,85.10
2019-06-01T00:12:01.820Z,85.10
2019-06-01T00:14:33.128Z,85.30
2019-06-01T00:17:05.018Z,85.50
2019-06-01T00:19:36.377Z,85.60
2019-06-01T00:22:07.841Z,85.80
2019-06-01T00:24:39.469Z,85.90
2019-06-01T00:27:11.062Z,86.00
2019-06-01T00:29:42.763Z,86.20
2019-06-01T00:32:14.224Z,86.40
2019-06-01T00:34:45.822Z,86.50
2019-06-01T00:37:18.437Z,86.60
2019-06-01T00:39:49.998Z,86.70
2019-06-01T00:42:22.527Z,86.80
2019-06-01T00:44:53.934Z,87.00
2019-06-01T00:47:25.508Z,87.10
2019-06-01T00:49:56.763Z,87.10
2019-06-01T00:52:28.433Z,87.10
2019-06-01T00:54:59.782Z,87.30
2019-06-01T00:57:31.002Z,87.40
2019-06-01T01:00:04.350Z,87.50
2019-06-01T01:02:37.211Z,87.60
2019-06-01T01:05:10.155Z,87.60
2019-06-01T01:07:41.997Z,87.70
2019-06-01T01:10:13.475Z,88.00
2019-06-01T01:13:05.221Z,87.90
2019-06-01T01:15:37.207Z,87.90
2019-06-01T01:18:08.839Z,87.90
2019-06-01T01:20:40.334Z,88.00
2019-06-01T01:23:11.718Z,88.10
2019-06-01T01:25:43.785Z,88.10
2019-06-01T01:28:14.994Z,88.20
2019-06-01T01:31:01.549Z,88.30
2019-06-01T01:33:19.716Z,88.40
2019-06-01T01:35:52.560Z,88.70
2019-06-01T01:38:24.774Z,89.00
2019-06-01T01:40:56.267Z,89.20
2019-06-01T01:43:28.105Z,89.30
2019-06-01T01:45:59.960Z,89.50
2019-06-01T01:48:31.545Z,89.70
2019-06-01T01:51:03.181Z,89.50
2019-06-01T01:53:34.715Z,89.50
2019-06-01T01:56:05.966Z,89.50
2019-06-01T01:58:37.577Z,89.40
2019-06-01T02:01:21.346Z,89.40
2019-06-01T02:03:42.188Z,89.50
2019-06-01T02:06:14.527Z,89.60
2019-06-01T02:08:45.782Z,89.60
2019-06-01T02:11:17.525Z,89.60
2019-06-01T02:13:49.015Z,89.70
2019-06-01T02:16:20.477Z,89.60
2019-06-01T02:18:53.861Z,89.60
2019-06-01T02:21:25.108Z,89.70
2019-06-01T02:23:56.993Z,89.60
2019-06-01T02:26:28.578Z,89.70
2019-06-01T02:29:02.010Z,89.70
2019-06-01T02:31:41.544Z,89.70
2019-06-01T02:34:06.590Z,89.80
2019-06-01T02:36:38.133Z,89.80
2019-06-01T02:39:11.727Z,89.90
2019-06-01T02:41:43.265Z,90.00
2019-06-01T02:44:15.046Z,90.00
2019-06-01T02:46:46.459Z,90.10
2019-06-01T02:49:18.354Z,90.10
2019-06-01T02:51:49.871Z,90.10
2019-06-01T02:54:21.213Z,90.10
2019-06-01T02:56:52.677Z,90.10
2019-06-01T02:59:24.203Z,90.10
2019-06-01T03:02:00.220Z,90.10
2019-06-01T03:04:30.011Z,90.10
2019-06-01T03:07:03.765Z,90.10
2019-06-01T03:09:38.572Z,90.20
2019-06-01T03:12:11.366Z,90.20
2019-06-01T03:14:44.151Z,90.30
2019-06-01T03:17:16.397Z,90.40
2019-06-01T03:19:49.070Z,90.50
2019-06-01T03:22:22.309Z,90.70
2019-06-01T03:24:54.137Z,90.80
2019-06-01T03:27:28.649Z,90.80
2019-06-01T03:30:03.932Z,90.90
2019-06-01T03:32:37.337Z,90.80
2019-06-01T03:35:10.857Z,90.70
2019-06-01T03:37:42.313Z,90.60
2019-06-01T03:40:23.153Z,90.60
2019-06-01T03:42:47.092Z,90.50
2019-06-01T03:45:18.652Z,90.40
2019-06-01T03:47:50.007Z,90.30
2019-06-01T03:50:21.392Z,90.20
2019-06-01T03:52:52.923Z,90.10
2019-06-01T03:55:24.479Z,90.00
2019-06-01T03:57:55.968Z,89.80
2019-06-01T04:00:27.404Z,89.70
2019-06-01T04:02:58.927Z,89.30
2019-06-01T04:05:30.447Z,89.10
2019-06-01T04:08:01.825Z,88.90
2019-06-01T04:10:33.161Z,88.80
2019-06-01T04:13:05.629Z,88.60
2019-06-01T04:15:37.589Z,88.50
2019-06-01T04:18:10.185Z,88.30
2019-06-01T04:20:42.028Z,88.10
2019-06-01T04:23:14.624Z,88.10
2019-06-01T04:25:46.031Z,87.90
2019-06-01T04:28:17.445Z,87.70
2019-06-01T04:30:48.914Z,87.50
2019-06-01T04:33:21.276Z,87.30
2019-06-01T04:35:52.789Z,87.10
2019-06-01T04:38:24.239Z,86.60
2019-06-01T04:40:55.571Z,86.20
2019-06-01T04:43:26.891Z,86.00
2019-06-01T04:45:58.502Z,85.70
2019-06-01T04:48:30.195Z,85.70
2019-06-01T04:51:01.552Z,85.40
2019-06-01T04:53:33.055Z,85.10
2019-06-01T04:56:04.841Z,84.90
2019-06-01T04:58:36.430Z,84.40
2019-06-01T05:01:08.868Z,84.00
2019-06-01T05:03:40.502Z,83.60
2019-06-01T05:06:13.311Z,83.20
2019-06-01T05:08:44.826Z,83.00
2019-06-01T05:11:16.057Z,83.20
2019-06-01T05:13:47.522Z,81.90
2019-06-01T05:16:19.169Z,81.80
2019-06-01T05:18:50.467Z,80.80
2019-06-01T05:21:22.875Z,79.50
2019-06-01T05:23:54.522Z,78.40
2019-06-01T05:26:26.054Z,78.00
2019-06-01T05:28:57.671Z,78.10
2019-06-01T05:31:29.478Z,77.80
2019-06-01T05:34:00.971Z,77.00
2019-06-01T05:36:32.566Z,75.60
2019-06-01T05:39:06.302Z,74.50
2019-06-01T05:41:37.768Z,72.90
2019-06-01T05:44:09.171Z,72.30
2019-06-01T05:46:40.760Z,72.00
2019-06-01T05:49:13.198Z,71.30
2019-06-01T05:51:46.631Z,70.80
2019-06-01T05:54:18.894Z,70.50
2019-06-01T05:56:50.417Z,70.20
2019-06-01T05:59:22.323Z,69.90
2019-06-01T06:01:53.919Z,69.00
2019-06-01T06:04:25.706Z,68.20
2019-06-01T06:06:57.116Z,67.30
2019-06-01T06:09:28.563Z,66.50
2019-06-01T06:11:59.924Z,66.10
2019-06-01T06:14:34.213Z,66.80
2019-06-01T06:17:06.633Z,67.40
2019-06-01T06:19:38.228Z,67.90
2019-06-01T06:22:09.571Z,67.90
2019-06-01T06:24:40.929Z,67.70
2019-06-01T06:27:12.440Z,67.00
2019-06-01T06:29:44.736Z,66.70
2019-06-01T06:32:19.169Z,66.40
2019-06-01T06:34:50.595Z,66.30
2019-06-01T06:37:22.056Z,64.60
2019-06-01T06:39:57.641Z,62.20
2019-06-01T06:42:29.228Z,60.90
2019-06-01T06:45:03.586Z,60.70
2019-06-01T06:47:34.924Z,61.40
2019-06-01T06:50:06.994Z,60.00
2019-06-01T06:52:38.372Z,59.60
2019-06-01T06:55:10.195Z,59.80
2019-06-01T06:57:41.492Z,60.90
2019-06-01T07:00:13.051Z,61.10
2019-06-01T07:02:44.539Z,61.10
2019-06-01T07:05:17.141Z,59.30
2019-06-01T07:07:48.986Z,57.60
2019-06-01T07:10:20.612Z,57.70
2019-06-01T07:12:52.129Z,56.80
2019-06-01T07:15:24.031Z,56.70
2019-06-01T07:17:55.360Z,55.00
2019-06-01T07:20:27.808Z,53.10
2019-06-01T07:22:59.581Z,52.30
2019-06-01T07:25:30.997Z,51.70
2019-06-01T07:28:03.157Z,50.90
2019-06-01T07:30:49.867Z,50.00
2019-06-01T07:33:08.313Z,49.50
2019-06-01T07:35:40.227Z,49.30
2019-06-01T07:38:11.634Z,48.40
2019-06-01T07:40:43.113Z,44.90
2019-06-01T07:43:14.602Z,41.70
2019-06-01T07:45:45.894Z,41.50
2019-06-01T07:48:17.482Z,40.50
2019-06-01T07:50:49.051Z,38.90
2019-06-01T07:53:20.959Z,38.20
2019-06-01T07:55:52.351Z,37.70
2019-06-01T07:58:24.658Z,37.50
2019-06-01T08:00:56.059Z,37.50
2019-06-01T08:03:30.871Z,37.20
2019-06-01T08:06:00.682Z,37.50
2019-06-01T08:08:32.780Z,38.00
2019-06-01T08:11:04.241Z,39.10
2019-06-01T08:13:35.979Z,39.70
2019-06-01T08:16:07.688Z,39.70
2019-06-01T08:18:39.571Z,39.60
2019-06-01T08:21:11.158Z,39.80
2019-06-01T08:23:43.761Z,42.00
2019-06-01T08:26:15.071Z,42.20
2019-06-01T08:28:46.452Z,41.60
2019-06-01T08:31:18.396Z,39.80
2019-06-01T08:33:49.745Z,39.70
2019-06-01T08:36:21.084Z,38.70
2019-06-01T08:38:52.708Z,37.70
2019-06-01T08:41:25.513Z,36.20
2019-06-01T08:43:56.943Z,34.60
2019-06-01T08:46:29.589Z,35.50
2019-06-01T08:49:00.944Z,35.60
2019-06-01T08:51:32.176Z,35.20
2019-06-01T08:54:03.605Z,35.70
2019-06-01T08:56:35.133Z,34.80
2019-06-01T08:59:07.510Z,33.90
2019-06-01T09:01:39.049Z,33.70
2019-06-01T09:04:10.434Z,33.40
2019-06-01T09:06:41.988Z,34.40
2019-06-01T09:09:13.348Z,33.60
2019-06-01T09:11:44.987Z,32.60
2019-06-01T09:14:16.496Z,32.10
2019-06-01T09:16:47.832Z,32.30
2019-06-01T09:19:19.430Z,34.10
2019-06-01T09:21:51.142Z,34.00
2019-06-01T09:24:22.518Z,34.40
2019-06-01T09:26:54.005Z,33.90
2019-06-01T09:29:25.811Z,33.90
2019-06-01T09:31:57.243Z,33.80
2019-06-01T09:34:28.621Z,33.40
2019-06-01T09:37:00.304Z,33.40
2019-06-01T09:39:33.072Z,33.10
2019-06-01T09:42:04.685Z,33.20
2019-06-01T09:44:37.241Z,32.90
2019-06-01T09:47:08.752Z,33.50
2019-06-01T09:49:40.390Z,34.00
2019-06-01T09:52:12.598Z,34.30
2019-06-01T09:54:44.489Z,33.90
2019-06-01T09:57:15.975Z,33.50
2019-06-01T09:59:47.356Z,33.90
2019-06-01T10:02:18.747Z,34.30
2019-06-01T10:04:50.157Z,33.90
2019-06-01T10:07:21.486Z,34.00
2019-06-01T10:09:53.587Z,34.00
2019-06-01T10:12:24.857Z,34.20
2019-06-01T10:14:56.431Z,33.50
2019-06-01T10:17:27.781Z,33.70
2019-06-01T10:19:59.093Z,33.60
2019-06-01T10:22:30.975Z,33.50
2019-06-01T10:25:05.815Z,32.50
2019-06-01T10:27:38.528Z,32.10
2019-06-01T10:30:11.632Z,32.00
2019-06-01T10:32:42.979Z,32.40
2019-06-01T10:35:14.562Z,32.30
2019-06-01T10:37:45.967Z,32.00
2019-06-01T10:40:17.358Z,32.10
2019-06-01T10:42:48.974Z,31.50
2019-06-01T10:45:20.263Z,31.70
2019-06-01T10:47:51.653Z,32.20
2019-06-01T10:50:24.094Z,31.20
2019-06-01T10:52:55.399Z,31.20
2019-06-01T10:55:26.884Z,31.00
2019-06-01T10:57:58.112Z,30.70
2019-06-01T11:00:39.832Z,30.20
2019-06-01T11:03:02.784Z,31.30
2019-06-01T11:05:34.989Z,32.60
2019-06-01T11:08:06.595Z,31.50
2019-06-01T11:10:38.921Z,31.60
2019-06-01T11:13:10.352Z,32.30
2019-06-01T11:15:44.706Z,32.50
2019-06-01T11:18:16.032Z,32.30
2019-06-01T11:20:47.264Z,34.40
2019-06-01T11:23:18.477Z,34.60
2019-06-01T11:25:49.839Z,34.80
2019-06-01T11:28:21.153Z,34.80
2019-06-01T11:30:52.636Z,36.60
2019-06-01T11:33:23.936Z,35.80
2019-06-01T11:35:56.481Z,35.20
2019-06-01T11:38:27.679Z,35.20
2019-06-01T11:40:59.042Z,35.30
2019-06-01T11:43:30.402Z,36.00
2019-06-01T11:46:01.844Z,34.90
2019-06-01T11:48:34.988Z,35.60
2019-06-01T11:51:06.662Z,35.40
2019-06-01T11:53:39.972Z,34.20
2019-06-01T11:56:11.623Z,33.10
2019-06-01T11:58:43.395Z,32.90
2019-06-01T12:01:15.425Z,33.00
2019-06-01T12:03:47.368Z,31.70
2019-06-01T12:06:18.770Z,31.40
2019-06-01T12:08:50.243Z,32.20
2019-06-01T12:11:21.586Z,32.00
2019-06-01T12:13:52.942Z,32.60
2019-06-01T12:16:24.412Z,31.10
2019-06-01T12:18:55.704Z,30.90
2019-06-01T12:21:31.552Z,31.80
2019-06-01T12:24:03.426Z,31.60
2019-06-01T12:26:37.133Z,31.60
2019-06-01T12:29:09.172Z,31.50
2019-06-01T12:31:41.643Z,31.50
2019-06-01T12:34:13.461Z,31.10
2019-06-01T12:36:46.285Z,31.30
2019-06-01T12:39:17.959Z,30.80
2019-06-01T12:41:49.607Z,31.00
2019-06-01T12:44:25.889Z,31.30
2019-06-01T12:46:58.331Z,31.70
2019-06-01T12:49:30.139Z,31.80
2019-06-01T12:52:02.128Z,31.00
2019-06-01T12:54:34.028Z,31.40
2019-06-01T12:57:05.235Z,31.60
2019-06-01T12:59:36.458Z,31.50
2019-06-01T13:02:08.494Z,31.70
2019-06-01T13:04:40.617Z,32.60
2019-06-01T13:07:11.955Z,31.50
2019-06-01T13:09:43.992Z,30.90
2019-06-01T13:12:15.691Z,30.90
2019-06-01T13:14:47.285Z,31.10
2019-06-01T13:17:19.597Z,30.50
2019-06-01T13:19:51.571Z,31.20
2019-06-01T13:22:23.242Z,32.00
2019-06-01T13:24:56.229Z,31.40
2019-06-01T13:27:27.575Z,30.50
2019-06-01T13:29:58.914Z,31.10
2019-06-01T13:32:30.556Z,31.80
2019-06-01T13:35:05.106Z,32.40
2019-06-01T13:37:36.774Z,32.70
2019-06-01T13:40:08.570Z,31.80
2019-06-01T13:42:40.070Z,31.40
2019-06-01T13:45:12.058Z,32.00
2019-06-01T13:47:43.489Z,32.70
2019-06-01T13:50:15.137Z,32.60
2019-06-01T13:52:46.390Z,32.60
2019-06-01T13:55:17.603Z,32.50
2019-06-01T13:57:48.820Z,32.70
2019-06-01T14:00:29.833Z,33.40
2019-06-01T14:02:55.874Z,34.00
2019-06-01T14:05:27.340Z,34.80
2019-06-01T14:07:58.860Z,35.50
2019-06-01T14:10:30.365Z,35.70
2019-06-01T14:13:05.158Z,35.10
2019-06-01T14:15:35.574Z,35.50
2019-06-01T14:18:07.026Z,35.80
2019-06-01T14:20:38.349Z,36.20
2019-06-01T14:23:10.312Z,36.70
2019-06-01T14:25:42.007Z,37.10
2019-06-01T14:28:13.563Z,36.70
2019-06-01T14:30:46.120Z,36.40
2019-06-01T14:33:17.811Z,36.30
2019-06-01T14:35:50.174Z,36.70
2019-06-01T14:38:21.877Z,36.90
2019-06-01T14:40:53.689Z,37.00
2019-06-01T14:43:25.035Z,37.80
2019-06-01T14:45:56.466Z,37.90
2019-06-01T14:48:27.893Z,37.50
2019-06-01T14:50:59.478Z,37.40
2019-06-01T14:53:31.621Z,37.30
2019-06-01T14:56:04.528Z,37.80
2019-06-01T14:58:35.856Z,38.40
2019-06-01T15:01:07.162Z,38.20
2019-06-01T15:03:38.782Z,38.20
2019-06-01T15:06:10.430Z,38.50
2019-06-01T15:08:41.759Z,38.20
2019-06-01T15:11:13.237Z,38.40
2019-06-01T15:13:44.900Z,38.70
2019-06-01T15:16:16.449Z,38.60
2019-06-01T15:18:47.813Z,38.70
2019-06-01T15:21:19.089Z,38.60
2019-06-01T15:23:51.858Z,38.60
2019-06-01T15:26:23.476Z,38.90
2019-06-01T15:28:54.791Z,39.30
2019-06-01T15:31:26.443Z,39.30
2019-06-01T15:33:57.971Z,39.30
2019-06-01T15:36:30.156Z,39.80
2019-06-01T15:39:03.232Z,39.50
2019-06-01T15:41:35.566Z,39.20
2019-06-01T15:44:07.143Z,39.20
2019-06-01T15:46:38.477Z,39.50
2019-06-01T15:49:09.832Z,40.00
2019-06-01T15:51:41.195Z,40.20
2019-06-01T15:54:12.394Z,40.40
2019-06-01T15:56:43.860Z,40.20
2019-06-01T15:59:15.193Z,40.20
2019-06-01T16:01:46.470Z,40.30
2019-06-01T16:04:18.024Z,40.50
2019-06-01T16:06:49.383Z,40.60
2019-06-01T16:09:20.842Z,40.90
2019-06-01T16:11:53.375Z,41.00
2019-06-01T16:14:24.909Z,40.90
2019-06-01T16:16:56.274Z,41.00
2019-06-01T16:19:29.280Z,41.40
2019-06-01T16:22:00.694Z,41.80
2019-06-01T16:24:31.971Z,41.80
2019-06-01T16:27:04.698Z,42.20
2019-06-01T16:29:36.414Z,41.90
2019-06-01T16:32:07.911Z,42.10
2019-06-01T16:34:39.349Z,42.70
2019-06-01T16:37:10.972Z,42.80
2019-06-01T16:39:57.934Z,42.90
2019-06-01T16:42:15.807Z,43.40
2019-06-01T16:44:47.117Z,43.50
2019-06-01T16:47:18.484Z,43.30
2019-06-01T16:49:49.662Z,43.00
2019-06-01T16:52:21.142Z,43.20
2019-06-01T16:54:52.527Z,43.40
2019-06-01T16:57:24.269Z,43.50
2019-06-01T16:59:56.346Z,43.40
2019-06-01T17:02:28.598Z,43.50
2019-06-01T17:05:00.655Z,43.50
2019-06-01T17:07:32.140Z,44.10
2019-06-01T17:10:21.715Z,44.40
2019-06-01T17:12:43.541Z,44.80
2019-06-01T17:15:14.134Z,44.90
2019-06-01T17:17:45.299Z,44.90
2019-06-01T17:20:40.427Z,44.90
2019-06-01T17:23:32.714Z,45.20
2019-06-01T17:25:46.621Z,45.30
2019-06-01T17:28:18.476Z,45.30
2019-06-01T17:30:50.066Z,45.40
2019-06-01T17:33:21.626Z,45.60
2019-06-01T17:35:53.040Z,45.80
2019-06-01T17:38:24.355Z,46.20
2019-06-01T17:40:55.736Z,46.90
2019-06-01T17:43:27.092Z,47.30
2019-06-01T17:45:58.605Z,49.10
2019-06-01T17:48:30.128Z,49.00
2019-06-01T17:51:02.571Z,48.40
2019-06-01T17:53:34.284Z,48.20
2019-06-01T17:56:06.095Z,48.60
2019-06-01T17:58:37.678Z,48.80
2019-06-01T18:01:09.949Z,48.50
2019-06-01T18:03:41.627Z,48.30
2019-06-01T18:06:14.589Z,48.40
2019-06-01T18:08:46.006Z,50.10
2019-06-01T18:11:17.621Z,50.40
2019-06-01T18:13:49.060Z,50.60
2019-06-01T18:16:20.472Z,51.90
2019-06-01T18:18:51.929Z,52.80
2019-06-01T18:21:23.371Z,53.20
2019-06-01T18:23:54.893Z,53.10
2019-06-01T18:26:26.388Z,53.40
2019-06-01T18:28:57.717Z,54.90
2019-06-01T18:31:29.204Z,56.60
2019-06-01T18:34:03.002Z,55.90
2019-06-01T18:36:34.782Z,54.20
2019-06-01T18:39:07.592Z,54.30
2019-06-01T18:41:39.015Z,55.90
2019-06-01T18:44:10.177Z,59.20
2019-06-01T18:46:41.715Z,59.00
2019-06-01T18:49:17.571Z,62.10
2019-06-01T18:51:46.441Z,63.90
2019-06-01T18:54:17.822Z,65.80
2019-06-01T18:56:49.181Z,65.00
2019-06-01T18:59:23.594Z,64.10
2019-06-01T19:01:55.022Z,66.80
2019-06-01T19:04:26.189Z,65.30
2019-06-01T19:06:57.886Z,67.20
2019-06-01T19:09:29.172Z,68.50
2019-06-01T19:12:00.580Z,69.20
2019-06-01T19:14:31.889Z,70.00
2019-06-01T19:17:03.371Z,70.90
2019-06-01T19:19:34.746Z,71.40
2019-06-01T19:22:06.389Z,71.90
2019-06-01T19:24:37.722Z,72.30
2019-06-01T19:27:09.117Z,72.60
2019-06-01T19:29:40.566Z,73.00
2019-06-01T19:32:12.898Z,73.20
2019-06-01T19:34:44.975Z,73.60
2019-06-01T19:37:17.218Z,74.10
2019-06-01T19:39:48.923Z,74.40
2019-06-01T19:42:20.129Z,74.70
2019-06-01T19:44:51.444Z,75.20
2019-06-01T19:47:22.619Z,75.80
2019-06-01T19:49:54.379Z,75.80
2019-06-01T19:52:25.738Z,76.00
2019-06-01T19:54:57.503Z,76.40
2019-06-01T19:57:29.184Z,76.80
2019-06-01T20:00:00.431Z,77.20
2019-06-01T20:02:34.285Z,77.50
2019-06-01T20:05:05.373Z,78.00
2019-06-01T20:07:36.839Z,78.10
2019-06-01T20:10:10.089Z,78.40
2019-06-01T20:12:42.885Z,78.70
2019-06-01T20:15:15.472Z,79.10
2019-06-01T20:17:47.148Z,79.40
2019-06-01T20:20:19.689Z,79.70
2019-06-01T20:22:51.186Z,80.10
2019-06-01T20:25:22.700Z,80.20
2019-06-01T20:27:54.209Z,80.50
2019-06-01T20:30:25.654Z,80.70
2019-06-01T20:32:57.194Z,80.90
2019-06-01T20:35:28.607Z,81.10
2019-06-01T20:38:00.058Z,81.30
2019-06-01T20:40:31.615Z,81.50
2019-06-01T20:43:03.091Z,81.70
2019-06-01T20:45:35.648Z,81.90
2019-06-01T20:48:10.263Z,82.20
2019-06-01T20:50:41.605Z,82.30
2019-06-01T20:53:16.947Z,82.40
2019-06-01T20:55:48.248Z,82.60
2019-06-01T20:58:21.972Z,82.80
2019-06-01T21:00:53.892Z,83.10
2019-06-01T21:03:26.276Z,83.30
2019-06-01T21:05:59.076Z,83.40
2019-06-01T21:08:30.542Z,83.70
2019-06-01T21:11:02.255Z,83.90
2019-06-01T21:13:33.553Z,84.10
2019-06-01T21:16:05.235Z,84.20
2019-06-01T21:18:37.214Z,84.40
2019-06-01T21:21:09.722Z,84.50
2019-06-01T21:23:41.052Z,84.70
2019-06-01T21:26:15.017Z,84.80
2019-06-01T21:28:46.715Z,85.00
2019-06-01T21:31:18.946Z,85.10
2019-06-01T21:33:50.610Z,85.20
2019-06-01T21:36:21.934Z,85.40
2019-06-01T21:38:53.571Z,85.50
2019-06-01T21:41:25.759Z,85.60
2019-06-01T21:43:57.863Z,85.60
2019-06-01T21:46:29.509Z,85.90
2019-06-01T21:49:01.573Z,86.00
2019-06-01T21:51:33.467Z,86.10
2019-06-01T21:54:04.760Z,86.10
2019-06-01T21:56:36.415Z,86.30
2019-06-01T21:59:07.994Z,86.40
2019-06-01T22:01:39.454Z,86.50
2019-06-01T22:04:11.354Z,86.60
2019-06-01T22:06:46.157Z,86.70
2019-06-01T22:09:17.107Z,86.90
2019-06-01T22:11:48.811Z,86.90
2019-06-01T22:14:21.276Z,87.00
2019-06-01T22:16:53.215Z,87.00
2019-06-01T22:19:25.765Z,87.00
2019-06-01T22:21:57.372Z,87.10
2019-06-01T22:24:28.638Z,87.20
2019-06-01T22:27:00.662Z,87.30
2019-06-01T22:29:31.933Z,87.40
2019-06-01T22:32:03.474Z,87.40
2019-06-01T22:34:35.242Z,87.40
2019-06-01T22:37:06.714Z,87.50
2019-06-01T22:39:38.282Z,87.60
2019-06-01T22:42:09.708Z,87.70
2019-06-01T22:44:40.977Z,87.80
2019-06-01T22:47:12.289Z,87.80
2019-06-01T22:49:43.592Z,87.90
2019-06-01T22:52:15.154Z,88.00
2019-06-01T22:54:46.561Z,88.00
2019-06-01T22:57:17.964Z,88.60
2019-06-01T22:59:49.457Z,88.20
2019-06-01T23:02:21.548Z,88.10
2019-06-01T23:04:53.245Z,88.20
2019-06-01T23:07:25.121Z,88.30
2019-06-01T23:09:56.702Z,88.30
2019-06-01T23:12:28.022Z,88.20
2019-06-01T23:14:59.488Z,88.30
2019-06-01T23:17:32.008Z,88.30
2019-06-01T23:20:07.016Z,88.40
2019-06-01T23:22:38.634Z,88.50
2019-06-01T23:25:10.364Z,88.40
2019-06-01T23:27:41.960Z,88.50
2019-06-01T23:30:13.872Z,88.60
2019-06-01T23:32:45.372Z,88.60
2019-06-01T23:35:16.870Z,88.70
2019-06-01T23:37:48.496Z,88.80
2019-06-01T23:40:20.059Z,88.70
2019-06-01T23:42:51.524Z,88.80
2019-06-01T23:45:23.078Z,88.90
2019-06-01T23:47:54.679Z,89.00
2019-06-01T23:50:27.165Z,88.90
2019-06-01T23:53:12.871Z,89.00
2019-06-01T23:55:31.976Z,89.00
2019-06-01T23:58:03.521Z,89.00
